PAM4707 CYQX-CYHZ
Flight info
| Callsign | PAM4707 |
|---|---|
| Flight time | 1h 18m |
| Altitude | 36000 |
| Route | SILRO DCT CAYLY CABOT5 |
| Aircraft | B737/M-SDE2E3FGHIRWXY/LB1 |
Departure
| Time | 2026-04-21 17:13 |
|---|---|
| Airport | Gander International Airport (CYQX) |
Arrival
| Time | 2026-04-21 18:31 |
|---|---|
| Airport | Halifax / Stanfield International Airport (CYHZ) |
| Time | Latitude | Longitude | Altitude | Speed | Heading |
|---|---|---|---|---|---|
| 2026-04-21 16:30 | 48.94610 | -54.57106 | 466 ft | 0 kts | 18° |
| 2026-04-21 17:02 | 48.94604 | -54.57109 | 466 ft | 4 kts | 15° |
| 2026-04-21 17:02 | 48.94578 | -54.57114 | 466 ft | 4 kts | 355° |
| 2026-04-21 17:02 | 48.94551 | -54.57109 | 463 ft | 4 kts | 0° |
| 2026-04-21 17:03 | 48.94534 | -54.57118 | 463 ft | 1 kts | 64° |
| 2026-04-21 17:08 | 48.94537 | -54.57108 | 463 ft | 6 kts | 64° |
| 2026-04-21 17:08 | 48.94549 | -54.57020 | 465 ft | 12 kts | 105° |
| 2026-04-21 17:09 | 48.94336 | -54.56821 | 462 ft | 24 kts | 154° |
| 2026-04-21 17:09 | 48.94172 | -54.56694 | 460 ft | 28 kts | 152° |
| 2026-04-21 17:09 | 48.94038 | -54.56587 | 458 ft | 24 kts | 158° |
| 2026-04-21 17:10 | 48.93874 | -54.56596 | 456 ft | 25 kts | 193° |
| 2026-04-21 17:10 | 48.93686 | -54.56657 | 453 ft | 27 kts | 188° |
| 2026-04-21 17:10 | 48.93479 | -54.56705 | 450 ft | 33 kts | 191° |
| 2026-04-21 17:10 | 48.93255 | -54.56774 | 447 ft | 26 kts | 191° |
| 2026-04-21 17:11 | 48.93111 | -54.56816 | 442 ft | 23 kts | 191° |
| 2026-04-21 17:11 | 48.92959 | -54.56858 | 443 ft | 16 kts | 190° |
| 2026-04-21 17:11 | 48.92835 | -54.56824 | 440 ft | 18 kts | 147° |
| 2026-04-21 17:11 | 48.92743 | -54.56709 | 438 ft | 13 kts | 117° |
| 2026-04-21 17:12 | 48.92761 | -54.56577 | 433 ft | 15 kts | 27° |
| 2026-04-21 17:12 | 48.92933 | -54.56525 | 443 ft | 57 kts | 9° |
| 2026-04-21 17:12 | 48.93617 | -54.56337 | 448 ft | 140 kts | 11° |
| 2026-04-21 17:12 | 48.94741 | -54.55971 | 987 ft | 176 kts | 13° |
| 2026-04-21 17:13 | 48.96031 | -54.55528 | 1913 ft | 208 kts | 8° |
| 2026-04-21 17:13 | 48.97496 | -54.55166 | 2743 ft | 225 kts | 4° |
| 2026-04-21 17:13 | 48.99173 | -54.54889 | 3075 ft | 261 kts | 2° |
| 2026-04-21 17:13 | 49.00893 | -54.54553 | 4521 ft | 222 kts | 4° |
| 2026-04-21 17:14 | 49.02330 | -54.54344 | 6100 ft | 199 kts | 358° |
| 2026-04-21 17:14 | 49.03759 | -54.54229 | 6860 ft | 218 kts | 358° |
| 2026-04-21 17:14 | 49.05375 | -54.54047 | 7239 ft | 248 kts | 357° |
| 2026-04-21 17:14 | 49.07075 | -54.54698 | 7490 ft | 259 kts | 318° |
| 2026-04-21 17:15 | 49.08153 | -54.56780 | 8137 ft | 248 kts | 282° |
| 2026-04-21 17:15 | 49.08295 | -54.59315 | 8957 ft | 238 kts | 255° |
| 2026-04-21 17:15 | 49.07729 | -54.61653 | 9764 ft | 235 kts | 237° |
| 2026-04-21 17:15 | 49.06813 | -54.63736 | 10489 ft | 239 kts | 231° |
| 2026-04-21 17:16 | 49.05809 | -54.65778 | 11192 ft | 243 kts | 230° |
| 2026-04-21 17:16 | 49.04779 | -54.67833 | 11936 ft | 245 kts | 230° |
| 2026-04-21 17:16 | 49.03734 | -54.69919 | 12655 ft | 249 kts | 230° |
| 2026-04-21 17:16 | 49.02657 | -54.72076 | 13165 ft | 267 kts | 230° |
| 2026-04-21 17:17 | 49.01471 | -54.74456 | 13395 ft | 297 kts | 230° |
| 2026-04-21 17:17 | 49.00169 | -54.77076 | 13620 ft | 324 kts | 231° |
| 2026-04-21 17:17 | 48.98760 | -54.79925 | 13832 ft | 349 kts | 231° |
| 2026-04-21 17:17 | 48.97256 | -54.82976 | 14004 ft | 371 kts | 231° |
| 2026-04-21 17:18 | 48.95676 | -54.86188 | 14337 ft | 385 kts | 231° |
| 2026-04-21 17:18 | 48.94065 | -54.89470 | 14926 ft | 389 kts | 231° |
| 2026-04-21 17:18 | 48.92441 | -54.92777 | 15600 ft | 392 kts | 231° |
| 2026-04-21 17:18 | 48.90805 | -54.96106 | 16223 ft | 395 kts | 231° |
| 2026-04-21 17:19 | 48.89149 | -54.99472 | 16811 ft | 399 kts | 231° |
| 2026-04-21 17:19 | 48.87481 | -55.02856 | 17384 ft | 403 kts | 231° |
| 2026-04-21 17:19 | 48.85789 | -55.06282 | 17943 ft | 407 kts | 231° |
| 2026-04-21 17:19 | 48.84084 | -55.09731 | 18485 ft | 411 kts | 231° |
| 2026-04-21 17:20 | 48.82357 | -55.13219 | 18956 ft | 414 kts | 231° |
| 2026-04-21 17:20 | 48.80626 | -55.16711 | 19442 ft | 416 kts | 231° |
| 2026-04-21 17:20 | 48.78876 | -55.20236 | 19932 ft | 418 kts | 231° |
| 2026-04-21 17:20 | 48.77119 | -55.23770 | 20399 ft | 421 kts | 231° |
| 2026-04-21 17:21 | 48.75352 | -55.27322 | 20863 ft | 423 kts | 231° |
| 2026-04-21 17:21 | 48.73571 | -55.30895 | 21326 ft | 425 kts | 230° |
| 2026-04-21 17:21 | 48.71783 | -55.34477 | 21756 ft | 428 kts | 230° |
| 2026-04-21 17:21 | 48.69984 | -55.38077 | 22184 ft | 430 kts | 230° |
| 2026-04-21 17:22 | 48.68788 | -55.40468 | 22458 ft | 431 kts | 230° |
| 2026-04-21 17:22 | 48.66356 | -55.45323 | 22990 ft | 434 kts | 230° |
| 2026-04-21 17:22 | 48.64529 | -55.48963 | 23360 ft | 436 kts | 230° |
| 2026-04-21 17:22 | 48.62693 | -55.52617 | 23734 ft | 437 kts | 230° |
| 2026-04-21 17:23 | 48.60850 | -55.56281 | 24033 ft | 438 kts | 230° |
| 2026-04-21 17:23 | 48.59000 | -55.59954 | 24329 ft | 440 kts | 230° |
| 2026-04-21 17:23 | 48.57146 | -55.63628 | 24628 ft | 441 kts | 230° |
| 2026-04-21 17:23 | 48.55284 | -55.67315 | 24934 ft | 441 kts | 230° |
| 2026-04-21 17:24 | 48.53422 | -55.70997 | 25224 ft | 442 kts | 230° |
| 2026-04-21 17:24 | 48.51552 | -55.74688 | 25517 ft | 443 kts | 230° |
| 2026-04-21 17:24 | 48.49675 | -55.78389 | 25786 ft | 444 kts | 229° |
| 2026-04-21 17:24 | 48.47796 | -55.82088 | 26044 ft | 445 kts | 229° |
| 2026-04-21 17:25 | 48.45914 | -55.85787 | 26281 ft | 445 kts | 229° |
| 2026-04-21 17:25 | 48.44032 | -55.89483 | 26536 ft | 445 kts | 229° |
| 2026-04-21 17:25 | 48.42150 | -55.93173 | 26839 ft | 443 kts | 229° |
| 2026-04-21 17:25 | 48.40277 | -55.96842 | 27195 ft | 440 kts | 229° |
| 2026-04-21 17:26 | 48.38416 | -56.00483 | 27571 ft | 438 kts | 229° |
| 2026-04-21 17:26 | 48.36561 | -56.04106 | 27937 ft | 436 kts | 229° |
| 2026-04-21 17:26 | 48.34712 | -56.07713 | 28291 ft | 435 kts | 229° |
| 2026-04-21 17:26 | 48.32870 | -56.11300 | 28698 ft | 432 kts | 229° |
| 2026-04-21 17:27 | 48.31037 | -56.14865 | 29134 ft | 430 kts | 229° |
| 2026-04-21 17:27 | 48.29214 | -56.18406 | 29538 ft | 428 kts | 229° |
| 2026-04-21 17:27 | 48.27397 | -56.21929 | 29979 ft | 426 kts | 229° |
| 2026-04-21 17:27 | 48.25588 | -56.25434 | 30446 ft | 423 kts | 228° |
| 2026-04-21 17:28 | 48.23796 | -56.28902 | 30862 ft | 419 kts | 228° |
| 2026-04-21 17:28 | 48.22011 | -56.32352 | 31242 ft | 418 kts | 228° |
| 2026-04-21 17:28 | 48.20234 | -56.35781 | 31599 ft | 416 kts | 228° |
| 2026-04-21 17:28 | 48.18459 | -56.39201 | 31995 ft | 414 kts | 228° |
| 2026-04-21 17:29 | 48.16699 | -56.42589 | 32397 ft | 411 kts | 228° |
| 2026-04-21 17:29 | 48.14945 | -56.45961 | 32743 ft | 410 kts | 228° |
| 2026-04-21 17:29 | 48.13194 | -56.49322 | 33063 ft | 409 kts | 228° |
| 2026-04-21 17:29 | 48.11444 | -56.52677 | 33413 ft | 407 kts | 228° |
| 2026-04-21 17:30 | 48.09710 | -56.56000 | 33809 ft | 405 kts | 228° |
| 2026-04-21 17:30 | 48.07980 | -56.59310 | 34140 ft | 403 kts | 228° |
| 2026-04-21 17:30 | 48.06252 | -56.62610 | 34375 ft | 403 kts | 228° |
| 2026-04-21 17:30 | 48.04521 | -56.65912 | 34606 ft | 403 kts | 227° |
| 2026-04-21 17:31 | 48.02794 | -56.69203 | 34833 ft | 403 kts | 227° |
| 2026-04-21 17:31 | 48.01057 | -56.72508 | 35020 ft | 404 kts | 227° |
| 2026-04-21 17:31 | 47.99320 | -56.75810 | 35217 ft | 405 kts | 227° |
| 2026-04-21 17:31 | 47.97584 | -56.79107 | 35467 ft | 404 kts | 227° |
| 2026-04-21 17:32 | 47.96433 | -56.81291 | 35613 ft | 404 kts | 227° |
| 2026-04-21 17:32 | 47.94106 | -56.85700 | 35847 ft | 405 kts | 227° |
| 2026-04-21 17:32 | 47.92362 | -56.89000 | 36033 ft | 405 kts | 227° |
| 2026-04-21 17:32 | 47.90618 | -56.92296 | 36197 ft | 405 kts | 227° |
| 2026-04-21 17:33 | 47.87122 | -56.98891 | 36215 ft | 405 kts | 227° |
| 2026-04-21 17:33 | 47.83632 | -57.05461 | 36225 ft | 404 kts | 227° |
| 2026-04-21 17:34 | 47.80178 | -57.11946 | 36237 ft | 403 kts | 227° |
| 2026-04-21 17:34 | 47.76696 | -57.18466 | 36248 ft | 402 kts | 227° |
| 2026-04-21 17:35 | 47.73223 | -57.24956 | 36248 ft | 401 kts | 227° |
| 2026-04-21 17:35 | 47.69750 | -57.31428 | 36245 ft | 400 kts | 227° |
| 2026-04-21 17:36 | 47.66842 | -57.36837 | 36248 ft | 399 kts | 227° |
| 2026-04-21 17:36 | 47.63375 | -57.43272 | 36260 ft | 399 kts | 227° |
| 2026-04-21 17:37 | 47.59907 | -57.49693 | 36256 ft | 399 kts | 227° |
| 2026-04-21 17:37 | 47.56441 | -57.56095 | 36261 ft | 398 kts | 226° |
| 2026-04-21 17:38 | 47.52978 | -57.62477 | 36255 ft | 397 kts | 226° |
| 2026-04-21 17:38 | 47.49516 | -57.68842 | 36263 ft | 397 kts | 226° |
| 2026-04-21 17:39 | 47.46056 | -57.75187 | 36261 ft | 396 kts | 226° |
| 2026-04-21 17:39 | 47.42590 | -57.81529 | 36269 ft | 396 kts | 226° |
| 2026-04-21 17:40 | 47.39153 | -57.87804 | 36268 ft | 396 kts | 226° |
| 2026-04-21 17:40 | 47.35665 | -57.94158 | 36277 ft | 395 kts | 226° |
| 2026-04-21 17:41 | 47.32222 | -58.00415 | 36272 ft | 395 kts | 226° |
| 2026-04-21 17:41 | 47.28756 | -58.06700 | 36282 ft | 395 kts | 226° |
| 2026-04-21 17:42 | 47.25287 | -58.12976 | 36274 ft | 395 kts | 226° |
| 2026-04-21 17:42 | 47.21818 | -58.19236 | 36293 ft | 395 kts | 225° |
| 2026-04-21 17:43 | 47.18345 | -58.25492 | 36283 ft | 394 kts | 225° |
| 2026-04-21 17:43 | 47.14871 | -58.31733 | 36292 ft | 394 kts | 225° |
| 2026-04-21 17:44 | 47.11399 | -58.37957 | 36296 ft | 394 kts | 225° |
| 2026-04-21 17:44 | 47.07923 | -58.44176 | 36302 ft | 394 kts | 225° |
| 2026-04-21 17:45 | 47.04447 | -58.50382 | 36302 ft | 393 kts | 225° |
| 2026-04-21 17:45 | 47.00977 | -58.56579 | 36309 ft | 394 kts | 226° |
| 2026-04-21 17:46 | 46.98103 | -58.63503 | 36315 ft | 402 kts | 236° |
| 2026-04-21 17:46 | 46.95557 | -58.70798 | 36316 ft | 402 kts | 235° |
| 2026-04-21 17:47 | 46.93001 | -58.78074 | 36312 ft | 402 kts | 235° |
| 2026-04-21 17:47 | 46.91719 | -58.81703 | 36429 ft | 402 kts | 235° |
| 2026-04-21 17:47 | 46.90432 | -58.85325 | 36409 ft | 401 kts | 234° |
| 2026-04-21 17:48 | 46.87855 | -58.92556 | 36325 ft | 401 kts | 234° |
| 2026-04-21 17:48 | 46.85272 | -58.99806 | 36321 ft | 399 kts | 234° |
| 2026-04-21 17:49 | 46.82726 | -59.06932 | 36328 ft | 398 kts | 234° |
| 2026-04-21 17:49 | 46.80145 | -59.14127 | 36322 ft | 397 kts | 234° |
| 2026-04-21 17:50 | 46.77578 | -59.21263 | 36312 ft | 397 kts | 234° |
| 2026-04-21 17:50 | 46.75008 | -59.28387 | 36320 ft | 397 kts | 234° |
| 2026-04-21 17:51 | 46.72449 | -59.35462 | 36327 ft | 397 kts | 233° |
| 2026-04-21 17:51 | 46.69867 | -59.42579 | 36327 ft | 398 kts | 233° |
| 2026-04-21 17:52 | 46.67261 | -59.49746 | 36326 ft | 398 kts | 233° |
| 2026-04-21 17:52 | 46.64662 | -59.56871 | 36324 ft | 398 kts | 233° |
| 2026-04-21 17:53 | 46.62059 | -59.63991 | 36324 ft | 399 kts | 233° |
| 2026-04-21 17:53 | 46.59447 | -59.71120 | 36323 ft | 399 kts | 233° |
| 2026-04-21 17:54 | 46.56831 | -59.78238 | 36322 ft | 399 kts | 233° |
| 2026-04-21 17:54 | 46.54210 | -59.85353 | 36321 ft | 399 kts | 233° |
| 2026-04-21 17:55 | 46.51584 | -59.92461 | 36319 ft | 399 kts | 233° |
| 2026-04-21 17:55 | 46.48954 | -59.99561 | 36318 ft | 400 kts | 233° |
| 2026-04-21 17:56 | 46.46319 | -60.06657 | 36313 ft | 399 kts | 233° |
| 2026-04-21 17:56 | 46.43677 | -60.13750 | 36308 ft | 399 kts | 232° |
| 2026-04-21 17:57 | 46.41035 | -60.20828 | 36306 ft | 399 kts | 232° |
| 2026-04-21 17:57 | 46.38388 | -60.27898 | 36309 ft | 399 kts | 232° |
| 2026-04-21 17:58 | 46.35741 | -60.34952 | 36306 ft | 399 kts | 232° |
| 2026-04-21 17:58 | 46.33107 | -60.41952 | 36304 ft | 399 kts | 232° |
| 2026-04-21 17:59 | 46.30453 | -60.48986 | 36297 ft | 399 kts | 232° |
| 2026-04-21 17:59 | 46.27792 | -60.56020 | 36309 ft | 398 kts | 232° |
| 2026-04-21 18:00 | 46.25132 | -60.63036 | 36298 ft | 398 kts | 232° |
| 2026-04-21 18:00 | 46.22467 | -60.70044 | 36311 ft | 398 kts | 232° |
| 2026-04-21 18:01 | 46.19798 | -60.77044 | 36311 ft | 398 kts | 232° |
| 2026-04-21 18:01 | 46.17124 | -60.84041 | 36308 ft | 398 kts | 232° |
| 2026-04-21 18:02 | 46.14445 | -60.91032 | 36319 ft | 398 kts | 232° |
| 2026-04-21 18:02 | 46.11765 | -60.98010 | 36319 ft | 398 kts | 231° |
| 2026-04-21 18:03 | 46.09081 | -61.04981 | 36304 ft | 398 kts | 231° |
| 2026-04-21 18:03 | 46.06391 | -61.11946 | 36325 ft | 398 kts | 231° |
| 2026-04-21 18:04 | 46.03696 | -61.18908 | 36333 ft | 398 kts | 231° |
| 2026-04-21 18:04 | 46.00995 | -61.25868 | 36334 ft | 398 kts | 231° |
| 2026-04-21 18:05 | 45.98298 | -61.32799 | 36333 ft | 399 kts | 231° |
| 2026-04-21 18:05 | 45.95579 | -61.39770 | 36330 ft | 400 kts | 231° |
| 2026-04-21 18:06 | 45.92848 | -61.46752 | 36335 ft | 401 kts | 231° |
| 2026-04-21 18:06 | 45.90107 | -61.53743 | 36330 ft | 402 kts | 232° |
| 2026-04-21 18:07 | 45.87334 | -61.60798 | 36330 ft | 404 kts | 232° |
| 2026-04-21 18:07 | 45.84569 | -61.67815 | 36335 ft | 405 kts | 232° |
| 2026-04-21 18:08 | 45.81790 | -61.74851 | 36340 ft | 406 kts | 232° |
| 2026-04-21 18:08 | 45.79031 | -61.81824 | 36337 ft | 403 kts | 232° |
| 2026-04-21 18:09 | 45.76253 | -61.88823 | 36348 ft | 401 kts | 232° |
| 2026-04-21 18:09 | 45.75334 | -61.91130 | 35969 ft | 407 kts | 232° |
| 2026-04-21 18:09 | 45.73483 | -61.95775 | 35164 ft | 402 kts | 231° |
| 2026-04-21 18:10 | 45.72082 | -61.99295 | 34384 ft | 400 kts | 230° |
| 2026-04-21 18:10 | 45.70732 | -62.02672 | 33441 ft | 396 kts | 230° |
| 2026-04-21 18:10 | 45.69353 | -62.06108 | 32383 ft | 398 kts | 230° |
| 2026-04-21 18:10 | 45.67989 | -62.09526 | 31533 ft | 393 kts | 230° |
| 2026-04-21 18:11 | 45.66632 | -62.12919 | 30525 ft | 393 kts | 230° |
| 2026-04-21 18:11 | 45.65277 | -62.16301 | 29405 ft | 390 kts | 230° |
| 2026-04-21 18:11 | 45.63930 | -62.19651 | 28291 ft | 388 kts | 230° |
| 2026-04-21 18:11 | 45.62588 | -62.22984 | 27212 ft | 386 kts | 231° |
| 2026-04-21 18:12 | 45.61082 | -62.26086 | 26213 ft | 374 kts | 223° |
| 2026-04-21 18:12 | 45.59394 | -62.28851 | 25383 ft | 366 kts | 222° |
| 2026-04-21 18:12 | 45.57711 | -62.31534 | 24601 ft | 360 kts | 223° |
| 2026-04-21 18:12 | 45.56051 | -62.34171 | 23812 ft | 354 kts | 223° |
| 2026-04-21 18:13 | 45.54412 | -62.36782 | 22923 ft | 353 kts | 224° |
| 2026-04-21 18:13 | 45.52785 | -62.39389 | 22126 ft | 352 kts | 224° |
| 2026-04-21 18:13 | 45.51145 | -62.42018 | 21326 ft | 361 kts | 224° |
| 2026-04-21 18:13 | 45.49417 | -62.44788 | 20495 ft | 384 kts | 225° |
| 2026-04-21 18:14 | 45.45862 | -62.50534 | 18728 ft | 384 kts | 226° |
| 2026-04-21 18:14 | 45.44107 | -62.53381 | 17777 ft | 380 kts | 227° |
| 2026-04-21 18:14 | 45.42953 | -62.55249 | 17208 ft | 377 kts | 227° |
| 2026-04-21 18:15 | 45.40655 | -62.58967 | 16093 ft | 371 kts | 227° |
| 2026-04-21 18:15 | 45.38957 | -62.61707 | 15147 ft | 369 kts | 227° |
| 2026-04-21 18:15 | 45.37842 | -62.63502 | 14520 ft | 369 kts | 227° |
| 2026-04-21 18:15 | 45.36119 | -62.66274 | 13576 ft | 366 kts | 228° |
| 2026-04-21 18:16 | 45.34446 | -62.68962 | 12721 ft | 361 kts | 228° |
| 2026-04-21 18:16 | 45.32794 | -62.71615 | 11943 ft | 355 kts | 229° |
| 2026-04-21 18:16 | 45.31166 | -62.74224 | 11175 ft | 350 kts | 229° |
| 2026-04-21 18:16 | 45.29573 | -62.76776 | 10819 ft | 336 kts | 229° |
| 2026-04-21 18:17 | 45.28056 | -62.79203 | 10623 ft | 322 kts | 229° |
| 2026-04-21 18:17 | 45.26592 | -62.81547 | 10492 ft | 313 kts | 230° |
| 2026-04-21 18:17 | 45.25182 | -62.83804 | 10346 ft | 298 kts | 230° |
| 2026-04-21 18:17 | 45.23840 | -62.85949 | 10219 ft | 283 kts | 230° |
| 2026-04-21 18:18 | 45.22562 | -62.87989 | 10090 ft | 270 kts | 230° |
| 2026-04-21 18:18 | 45.21355 | -62.89913 | 9972 ft | 259 kts | 230° |
| 2026-04-21 18:18 | 45.20167 | -62.91805 | 9639 ft | 255 kts | 230° |
| 2026-04-21 18:18 | 45.19122 | -62.93801 | 9342 ft | 250 kts | 240° |
| 2026-04-21 18:19 | 45.18280 | -62.95930 | 8999 ft | 247 kts | 243° |
| 2026-04-21 18:19 | 45.17480 | -62.98073 | 8663 ft | 245 kts | 243° |
| 2026-04-21 18:19 | 45.16750 | -63.00030 | 8344 ft | 244 kts | 243° |
| 2026-04-21 18:19 | 45.15954 | -63.02149 | 8008 ft | 243 kts | 243° |
| 2026-04-21 18:20 | 45.15156 | -63.04255 | 7671 ft | 242 kts | 243° |
| 2026-04-21 18:20 | 45.14358 | -63.06348 | 7354 ft | 241 kts | 243° |
| 2026-04-21 18:20 | 45.13558 | -63.08435 | 7031 ft | 240 kts | 243° |
| 2026-04-21 18:20 | 45.12760 | -63.10506 | 6698 ft | 240 kts | 243° |
| 2026-04-21 18:21 | 45.11962 | -63.12575 | 6349 ft | 239 kts | 243° |
| 2026-04-21 18:21 | 45.11166 | -63.14632 | 6049 ft | 237 kts | 243° |
| 2026-04-21 18:21 | 45.10338 | -63.16637 | 5707 ft | 238 kts | 233° |
| 2026-04-21 18:21 | 45.09012 | -63.17998 | 5421 ft | 239 kts | 201° |
| 2026-04-21 18:22 | 45.07361 | -63.18179 | 5158 ft | 240 kts | 170° |
| 2026-04-21 18:22 | 45.05739 | -63.17555 | 5077 ft | 245 kts | 164° |
| 2026-04-21 18:22 | 45.04082 | -63.16825 | 5004 ft | 253 kts | 163° |
| 2026-04-21 18:22 | 45.02398 | -63.16072 | 5009 ft | 254 kts | 163° |
| 2026-04-21 18:23 | 45.00738 | -63.15327 | 5000 ft | 250 kts | 163° |
| 2026-04-21 18:23 | 44.99069 | -63.14575 | 4995 ft | 250 kts | 163° |
| 2026-04-21 18:23 | 44.97410 | -63.13826 | 4998 ft | 252 kts | 163° |
| 2026-04-21 18:23 | 44.95694 | -63.13057 | 5026 ft | 272 kts | 163° |
| 2026-04-21 18:24 | 44.93830 | -63.12229 | 5016 ft | 284 kts | 163° |
| 2026-04-21 18:24 | 44.91960 | -63.11399 | 4987 ft | 279 kts | 163° |
| 2026-04-21 18:24 | 44.90139 | -63.10591 | 4990 ft | 270 kts | 163° |
| 2026-04-21 18:24 | 44.88372 | -63.09807 | 4984 ft | 262 kts | 163° |
| 2026-04-21 18:25 | 44.86638 | -63.09040 | 5000 ft | 261 kts | 163° |
| 2026-04-21 18:25 | 44.84880 | -63.08455 | 4976 ft | 259 kts | 182° |
| 2026-04-21 18:25 | 44.83184 | -63.09047 | 4970 ft | 252 kts | 216° |
| 2026-04-21 18:25 | 44.82105 | -63.10881 | 5008 ft | 245 kts | 252° |
| 2026-04-21 18:26 | 44.81975 | -63.13224 | 5022 ft | 240 kts | 274° |
| 2026-04-21 18:26 | 44.81693 | -63.15525 | 5017 ft | 236 kts | 253° |
| 2026-04-21 18:26 | 44.81302 | -63.17668 | 4981 ft | 221 kts | 265° |
| 2026-04-21 18:26 | 44.81311 | -63.19773 | 4980 ft | 206 kts | 280° |
| 2026-04-21 18:27 | 44.81556 | -63.21692 | 4971 ft | 193 kts | 283° |
| 2026-04-21 18:27 | 44.81831 | -63.23583 | 4389 ft | 209 kts | 283° |
| 2026-04-21 18:27 | 44.82120 | -63.25596 | 4093 ft | 210 kts | 283° |
| 2026-04-21 18:27 | 44.82408 | -63.27623 | 3808 ft | 212 kts | 282° |
| 2026-04-21 18:28 | 44.82693 | -63.29668 | 3536 ft | 213 kts | 282° |
| 2026-04-21 18:28 | 44.82978 | -63.31725 | 3231 ft | 214 kts | 282° |
| 2026-04-21 18:28 | 44.83257 | -63.33773 | 2968 ft | 212 kts | 282° |
| 2026-04-21 18:28 | 44.83535 | -63.35820 | 2687 ft | 213 kts | 281° |
| 2026-04-21 18:29 | 44.83807 | -63.37876 | 2391 ft | 214 kts | 281° |
| 2026-04-21 18:29 | 44.84083 | -63.39923 | 2150 ft | 212 kts | 281° |
| 2026-04-21 18:29 | 44.84510 | -63.41878 | 1892 ft | 207 kts | 297° |
| 2026-04-21 18:29 | 44.85255 | -63.43551 | 1614 ft | 195 kts | 303° |
| 2026-04-21 18:30 | 44.85842 | -63.44775 | 1424 ft | 182 kts | 304° |
| 2026-04-21 18:30 | 44.86482 | -63.46082 | 1183 ft | 172 kts | 305° |
| 2026-04-21 18:30 | 44.87150 | -63.47400 | 891 ft | 161 kts | 308° |
| 2026-04-21 18:30 | 44.87790 | -63.48622 | 618 ft | 146 kts | 309° |
| 2026-04-21 18:31 | 44.88346 | -63.49697 | 452 ft | 126 kts | 306° |
| 2026-04-21 18:31 | 44.88755 | -63.50507 | 449 ft | 47 kts | 304° |
| 2026-04-21 18:31 | 44.88867 | -63.50740 | 449 ft | 8 kts | 287° |
| 2026-04-21 18:31 | 44.88846 | -63.50804 | 449 ft | 7 kts | 220° |
| 2026-04-21 18:32 | 44.88805 | -63.50848 | 450 ft | 7 kts | 216° |
| 2026-04-21 18:32 | 44.88765 | -63.50889 | 451 ft | 7 kts | 216° |
| 2026-04-21 18:32 | 44.88731 | -63.50937 | 450 ft | 7 kts | 236° |
| 2026-04-21 18:32 | 44.88715 | -63.50999 | 451 ft | 7 kts | 253° |
| 2026-04-21 18:33 | 44.88706 | -63.51063 | 451 ft | 7 kts | 261° |
| 2026-04-21 18:33 | 44.88699 | -63.51127 | 451 ft | 6 kts | 261° |
| 2026-04-21 18:33 | 44.88692 | -63.51189 | 451 ft | 6 kts | 261° |
| 2026-04-21 18:33 | 44.88695 | -63.51249 | 451 ft | 6 kts | 306° |
| 2026-04-21 18:34 | 44.88754 | -63.51273 | 451 ft | 12 kts | 349° |
| 2026-04-21 18:34 | 44.88855 | -63.51300 | 451 ft | 15 kts | 350° |
| 2026-04-21 18:34 | 44.88886 | -63.51316 | 451 ft | 3 kts | 307° |
| 2026-04-21 18:34 | 44.88877 | -63.51369 | 451 ft | 8 kts | 241° |
| 2026-04-21 18:35 | 44.88866 | -63.51396 | 450 ft | 4 kts | 241° |
| 2026-04-21 18:35 | 44.88854 | -63.51426 | 451 ft | 0 kts | 239° |